Flight Track Log - Related Links

Times and Time Zones

All times are in EDT time to prevent confusion due to time zone crossing. See the ELJ613 flight status page for this flight to view local times or setup timezone preferences in your user account.

Time Position Orientation Groundspeed Altitude Reporting Facility
EDT Latitude Longitude Course Direction KTS MPH feet Rate Location/Type
Mon 03:40:00 PM 35.6483 -83.7195 329° Northwest  Level FlightAware Approximate
Mon 03:41:00 PM 35.7185 -83.7722 329° Northwest  Level FlightAware Approximate
Mon 03:46:00 PM 36.0774 -84.0183 332° Northwest  Level FlightAware Approximate
Mon 03:47:00 PM 36.1493 -84.0678 331° Northwest  Level FlightAware Approximate
Mon 03:48:00 PM 36.2209 -84.1179 331° Northwest  Level FlightAware Approximate
Mon 03:49:00 PM 36.2898 -84.1731 321° Northwest  Level FlightAware Approximate
Mon 03:50:00 PM 36.3580 -84.2295 330° Northwest  Level FlightAware Approximate
Mon 03:51:00 PM 36.4293 -84.2804 330° Northwest  Level FlightAware Approximate
Mon 03:52:00 PM 36.4986 -84.3352 330° Northwest  Level FlightAware Approximate
Mon 03:53:00 PM 36.5696 -84.3869 330° Northwest  Level FlightAware Approximate
Mon 03:54:00 PM 36.6406 -84.4386 330° Northwest  Level FlightAware Approximate
Mon 03:55:00 PM 36.7116 -84.4902 330° Northwest  Level FlightAware Approximate
Mon 03:56:00 PM 36.7827 -84.5419 330° Northwest  Level FlightAware Approximate
Mon 03:57:00 PM 36.8533 -84.5946 329° Northwest  Level FlightAware Approximate
Mon 03:58:00 PM 36.9235 -84.6481 329° Northwest  Level FlightAware Approximate
Mon 03:59:00 PM 36.9937 -84.7018 329° Northwest  Level FlightAware Approximate
Mon 04:00:00 PM 37.0639 -84.7555 329° Northwest  Level FlightAware Approximate
Mon 04:01:00 PM 37.1340 -84.8094 329° Northwest  Level FlightAware Approximate
Mon 04:02:00 PM 37.2041 -84.8634 328° Northwest  Level FlightAware Approximate
Mon 04:03:00 PM 37.2742 -84.9174 328° Northwest  Level FlightAware Approximate
Mon 04:04:00 PM 37.3442 -84.9716 328° Northwest  Level FlightAware Approximate
Mon 04:05:00 PM 37.4143 -85.0258 328° Northwest  Level FlightAware Approximate
Mon 04:06:00 PM 37.4843 -85.0802 328° Northwest  Level FlightAware Approximate
Mon 04:07:00 PM 37.5543 -85.1347 328° Northwest  Level FlightAware Approximate
Mon 04:08:00 PM 37.6237 -85.1903 322° Northwest  Level FlightAware Approximate
Mon 04:09:00 PM 37.6935 -85.2451 329° Northwest  Level FlightAware Approximate
Mon 04:10:00 PM 37.7642 -85.2981 329° Northwest  Level FlightAware Approximate
Mon 04:11:00 PM 37.8324 -85.3562 326° Northwest  Level FlightAware Approximate
Mon 04:12:00 PM 37.9006 -85.4146 326° Northwest  Level FlightAware Approximate
Mon 04:13:00 PM 37.9687 -85.4731 326° Northwest  Level FlightAware Approximate
Mon 04:14:00 PM 38.0382 -85.5287 329° Northwest  Level FlightAware Approximate
Mon 04:15:00 PM 38.1126 -85.5725 340° North  Level FlightAware Approximate
Mon 04:16:00 PM 38.1899 -85.6081 340° North  Level FlightAware Approximate
Mon 04:17:00 PM 38.2672 -85.6438 340° North  Level FlightAware Approximate
Mon 04:18:00 PM 38.3454 -85.6762 345° North  Level FlightAware Approximate
Mon 04:19:00 PM 38.4233 -85.7094 340° North  Level FlightAware Approximate
Mon 04:20:00 PM 38.5007 -85.7451 340° North  Level FlightAware Approximate
Mon 04:21:00 PM 38.5780 -85.7809 340° North  Level FlightAware Approximate
Mon 04:22:00 PM 38.6563 -85.8133 342° North  Level FlightAware Approximate
Mon 04:23:00 PM 38.7346 -85.8455 342° North  Level FlightAware Approximate
Mon 04:24:00 PM 38.8129 -85.8778 342° North  Level FlightAware Approximate
Mon 04:25:00 PM 38.8902 -85.9134 336° Northwest  Level FlightAware Approximate
Mon 04:26:00 PM 38.9653 -85.9564 336° Northwest  Level FlightAware Approximate
Mon 04:27:00 PM 39.0437 -85.9878 342° North  Level FlightAware Approximate
Mon 04:28:00 PM 39.1217 -86.0212 342° North  Level FlightAware Approximate
Mon 04:29:00 PM 39.1999 -86.0541 342° North  Level FlightAware Approximate
Mon 04:30:00 PM 39.2782 -86.0867 342° North  Level FlightAware Approximate
Mon 04:31:00 PM 39.3563 -86.1198 339° North  Level FlightAware Approximate
Mon 04:32:00 PM 39.4331 -86.1581 339° North  Level FlightAware Approximate
Mon 04:33:00 PM 39.5098 -86.1965 339° North  Level FlightAware Approximate
Mon 04:34:00 PM 39.5866 -86.2346 343° North  Level FlightAware Approximate
Mon 04:35:00 PM 39.6652 -86.2661 343° North  Level FlightAware Approximate
Mon 04:36:00 PM 39.7167 -86.2833 346° North  Level FlightAware Approximate
Mon 04:37:00 PM 39.7173 -86.2947 346° North  Level Estimated
Mon 04:38:00 PM 39.7173 -86.2947 346° North  Level Estimated
Mon 04:39:00 PM 39.7173 -86.2947 346° North  Level Estimated
Mon 04:40:00 PM 39.7173 -86.2947 346° North  Level Estimated
Mon 04:41:00 PM 39.7173 -86.2947 346° North  Level Estimated
Mon 04:42:00 PM 39.7173 -86.2947 346° North  Level Estimated
Mon 04:43:00 PM 39.7173 -86.2947 346° North  Level Estimated
Mon 04:44:00 PM 39.7173 -86.2947 346° North  Level Estimated
Mon 04:45:00 PM 39.7173 -86.2947 346° North  Level Estimated
Mon 04:46:00 PM 39.7173 -86.2947 346° North  Level Estimated
Mon 04:47:00 PM 39.7173 -86.2947 346° North  Level Estimated
Mon 04:48:00 PM 39.7173 -86.2947 346° North  Level Estimated
Mon 04:49:00 PM 39.7173 -86.2947 346° North  Level Estimated
Mon 04:50:00 PM 39.7173 -86.2947 346° North  Level Estimated
Mon 04:51:00 PM 39.7173 -86.2947 346° North  Level Estimated

Login

Don't have an account? Register now (free) for customized features, flight alerts, and more!